Time;durP1;ratioP1;P1;durP2;ratioP2;P2;SDS_P1;SDS_P2;PMS_P1;PMS_P2;Temp;Humidity;BMP_temperature;BMP_pressure;BME280_temperature;BME280_humidity;BME280_pressure;Samples;Min_cycle;Max_cycle;Signal;HPM_P1;HPM_P2
2023/03/27 00:04:44;;;;;;;;;;;;;;;10.71;66.28;97456.38;223586;184;145297;-67
2023/03/27 00:09:50;;;;;;;7.40;2.80;;;;;;;10.63;66.44;97454.86;223466;184;138768;-67
2023/03/27 00:14:54;;;;;;;6.10;3.30;;;;;;;10.57;66.86;97455.98;223538;184;136635;-66
2023/03/27 00:19:58;;;;;;;6.40;3.70;;;;;;;10.53;67.35;97453.14;223518;184;146236;-68
2023/03/27 00:25:04;;;;;;;6.00;3.30;;;;;;;10.47;67.47;97453.11;223424;183;139188;-67
2023/03/27 00:30:09;;;;;;;5.50;3.20;;;;;;;10.44;67.78;97444.71;223571;184;138101;-66
2023/03/27 00:35:15;;;;;;;5.10;3.40;;;;;;;10.46;67.85;97448.94;223537;184;146255;-69
2023/03/27 00:40:19;;;;;;;7.80;3.60;;;;;;;10.50;67.86;97443.30;223416;183;140289;-66
2023/03/27 00:45:30;;;;;;;6.10;3.70;;;;;;;10.52;67.90;97441.18;223395;184;136975;-68
2023/03/27 00:50:40;;;;;;;8.30;3.50;;;;;;;10.50;67.69;97441.85;223669;182;146490;-67
2023/03/27 00:56:00;;;;;;;6.70;3.60;;;;;;;10.46;67.59;97441.27;223560;183;138135;-68
2023/03/27 02:06:22;;;;;;;11.30;5.00;;;;;;;10.22;68.54;97350.88;221240;192;666590;-67
2023/03/27 02:11:35;;;;;;;9.80;4.70;;;;;;;10.11;68.69;97350.52;223744;183;136805;-68
2023/03/27 02:16:44;;;;;;;7.20;3.70;;;;;;;10.06;68.87;97344.84;223696;183;143111;-66
2023/03/27 02:22:07;;;;;;;9.30;3.90;;;;;;;10.08;68.84;97343.34;223782;183;138344;-70
2023/03/27 02:27:57;;;;;;;6.00;3.40;;;;;;;10.10;68.63;97332.40;223807;182;137096;-70
2023/03/27 02:33:22;;;;;;;5.40;2.10;;;;;;;10.16;68.28;97331.30;223800;183;143804;-70
2023/03/27 02:38:36;;;;;;;3.60;2.20;;;;;;;10.32;67.91;97331.52;223834;183;138394;-67
2023/03/27 02:43:51;;;;;;;112.60;77.60;;;;;;;10.32;68.00;97338.16;223705;183;137073;-68
2023/03/27 02:49:09;;;;;;;104.80;79.70;;;;;;;10.30;67.93;97333.33;223746;183;145079;-69
2023/03/27 02:54:20;;;;;;;9.40;6.60;;;;;;;10.34;68.06;97332.63;223802;182;140807;-66
2023/03/27 02:59:34;;;;;;;5.90;3.00;;;;;;;10.31;67.90;97339.11;223839;181;136681;-66
2023/03/27 03:04:45;;;;;;;5.40;3.10;;;;;;;10.26;67.79;97341.63;223770;181;145158;-65
2023/03/27 03:10:07;;;;;;;7.50;3.80;;;;;;;10.26;67.93;97348.02;223683;182;138666;-65
2023/03/27 03:15:12;;;;;;;55.00;33.10;;;;;;;10.24;67.89;97351.93;223791;182;137008;-68
2023/03/27 03:20:16;;;;;;;12.80;8.10;;;;;;;10.28;68.07;97357.59;223779;182;147449;-67
2023/03/27 03:25:24;;;;;;;11.50;6.30;;;;;;;10.32;67.96;97362.72;223777;182;138474;-68
2023/03/27 03:30:30;;;;;;;10.30;6.70;;;;;;;10.31;67.90;97363.73;223761;182;137112;-67
2023/03/27 03:35:42;;;;;;;8.30;6.00;;;;;;;10.26;68.11;97361.51;223856;182;145647;-67
2023/03/27 03:40:55;;;;;;;17.10;10.20;;;;;;;10.22;68.14;97362.75;223669;182;138725;-67
2023/03/27 03:46:01;;;;;;;36.20;25.70;;;;;;;10.28;68.32;97368.42;223693;182;137541;-67
2023/03/27 03:51:08;;;;;;;28.80;19.70;;;;;;;10.32;68.09;97358.36;223800;183;144964;-70
2023/03/27 03:56:13;;;;;;;22.80;16.90;;;;;;;10.23;68.21;97359.25;223766;182;138459;-68
2023/03/27 04:01:19;;;;;;;22.30;15.20;;;;;;;10.13;68.45;97354.98;223742;182;136483;-67
2023/03/27 04:06:29;;;;;;;14.10;10.70;;;;;;;10.10;68.77;97349.91;223693;181;145295;-68
2023/03/27 04:11:36;;;;;;;13.40;9.10;;;;;;;10.08;68.81;97348.68;223647;182;138379;-68
2023/03/27 04:17:00;;;;;;;12.80;7.80;;;;;;;10.09;69.03;97353.36;223723;182;136771;-67
2023/03/27 04:22:05;;;;;;;10.30;6.90;;;;;;;10.07;69.04;97352.45;223803;182;144891;-67
2023/03/27 04:27:11;;;;;;;11.50;6.80;;;;;;;10.04;69.02;97352.44;223811;182;140578;-67
2023/03/27 04:32:31;;;;;;;9.90;6.80;;;;;;;10.03;69.04;97350.87;223744;182;137316;-68
2023/03/27 04:37:55;;;;;;;10.20;7.20;;;;;;;10.00;68.88;97349.73;223830;182;145488;-67
2023/03/27 04:43:09;;;;;;;8.50;6.10;;;;;;;9.95;69.02;97346.27;223758;182;139274;-67
2023/03/27 04:48:14;;;;;;;11.30;6.80;;;;;;;9.91;69.00;97343.66;223797;182;136748;-67
2023/03/27 04:53:29;;;;;;;11.40;6.70;;;;;;;9.87;69.26;97346.62;223739;182;145599;-68
2023/03/27 04:58:39;;;;;;;9.50;6.10;;;;;;;9.88;69.47;97345.84;223619;182;138772;-68
2023/03/27 05:03:50;;;;;;;10.80;7.00;;;;;;;9.94;69.40;97347.61;223674;182;136847;-67
2023/03/27 05:09:10;;;;;;;12.70;8.10;;;;;;;9.99;69.31;97346.34;223782;182;145775;-66
2023/03/27 05:14:19;;;;;;;11.00;7.90;;;;;;;10.00;69.19;97346.23;223678;182;138744;-67
2023/03/27 05:19:44;;;;;;;11.50;8.00;;;;;;;10.01;69.24;97345.06;223704;182;137333;-69
2023/03/27 05:24:48;;;;;;;10.10;8.00;;;;;;;10.00;69.09;97347.66;223800;182;145107;-65
2023/03/27 05:29:54;;;;;;;13.40;9.20;;;;;;;9.97;69.24;97343.98;223694;182;138952;-65
2023/03/27 05:34:58;;;;;;;;;;;;;;;9.95;69.52;97341.63;223710;182;137439;-66
2023/03/27 05:42:50;;;;;;;12.80;10.10;;;;;;;9.95;69.68;97345.35;222181;193;675396;-66
2023/03/27 05:47:58;;;;;;;13.40;9.70;;;;;;;9.90;69.82;97350.45;223372;187;136478;-67
2023/03/27 05:53:10;;;;;;;12.70;8.60;;;;;;;9.94;69.91;97355.61;223445;185;146273;-68
2023/03/27 05:58:38;;;;;;;10.40;8.90;;;;;;;10.02;69.78;97358.27;223437;185;138219;-67
2023/03/27 06:03:42;;;;;;;12.80;8.90;;;;;;;10.07;69.41;97365.97;223890;181;136574;-67
2023/03/27 06:08:54;;;;;;;9.30;7.30;;;;;;;10.11;69.35;97372.14;223824;181;143664;-68
2023/03/27 06:13:58;;;;;;;8.60;6.80;;;;;;;10.15;69.19;97376.95;223771;181;138916;-68
2023/03/27 06:19:24;;;;;;;7.00;6.30;;;;;;;10.14;68.94;97384.63;223774;181;136682;-69
2023/03/27 06:24:28;;;;;;;8.40;6.00;;;;;;;10.11;68.83;97393.09;223819;182;143524;-68
2023/03/27 06:29:36;;;;;;;10.70;5.60;;;;;;;10.09;68.83;97400.14;223890;182;139050;-67
2023/03/27 06:34:40;;;;;;;;;;;;;;;10.07;68.84;97399.62;223738;181;138040;-68
2023/03/27 06:40:08;;;;;;;9.80;5.70;;;;;;;10.02;68.94;97406.25;223848;182;145252;-65
2023/03/27 06:45:16;;;;;;;8.10;5.70;;;;;;;9.98;69.22;97407.75;223713;182;140707;-64
2023/03/27 06:51:02;;;;;;;10.90;5.50;;;;;;;9.97;69.51;97406.55;223878;182;137657;-65
2023/03/27 06:56:07;;;;;;;11.60;6.20;;;;;;;10.01;69.61;97404.81;223790;181;145777;-66
2023/03/27 07:01:31;;;;;;;13.60;6.70;;;;;;;10.08;69.69;97408.21;223722;181;138724;-66
2023/03/27 07:07:10;;;;;;;10.40;7.50;;;;;;;10.13;69.54;97412.05;223699;181;137179;-65
2023/03/27 07:43:05;;;;;;;5.80;4.30;;;;;;;10.28;69.76;97431.03;221702;191;666835;-68
2023/03/27 07:48:14;;;;;;;5.90;4.70;;;;;;;10.33;69.86;97436.99;223434;186;136620;-67
2023/03/27 07:53:26;;;;;;;4.70;3.90;;;;;;;10.37;69.86;97437.88;223286;186;144183;-68
2023/03/27 07:58:57;;;;;;;5.60;4.00;;;;;;;10.40;69.30;97440.61;223482;185;139101;-66
2023/03/27 08:04:18;;;;;;;6.00;3.50;;;;;;;10.39;69.17;97439.28;223527;185;136464;-68
2023/03/27 08:09:45;;;;;;;6.00;4.50;;;;;;;10.34;68.92;97441.45;223617;186;143432;-67
2023/03/27 08:14:50;;;;;;;8.80;5.70;;;;;;;10.27;69.15;97442.42;223479;185;138355;-67
2023/03/27 08:20:07;;;;;;;9.10;7.00;;;;;;;10.25;69.20;97446.84;223440;186;136966;-66
2023/03/27 08:25:23;;;;;;;11.90;8.00;;;;;;;10.19;69.41;97447.81;223456;185;143932;-65
2023/03/27 08:30:28;;;;;;;15.00;9.50;;;;;;;10.22;69.64;97452.38;223572;184;138504;-64
2023/03/27 08:35:34;;;;;;;9.50;8.30;;;;;;;10.27;69.74;97453.95;223634;184;137691;-64
2023/03/27 08:42:51;;;;;;;10.40;8.30;;;;;;;10.46;69.57;97456.23;222087;193;677088;-75
2023/03/27 08:48:15;;;;;;;8.80;6.70;;;;;;;10.44;69.43;97456.70;223209;186;137189;-75
2023/03/27 08:53:22;;;;;;;9.40;6.10;;;;;;;10.49;69.33;97454.92;223509;184;145211;-73
2023/03/27 08:58:26;;;;;;;8.90;6.30;;;;;;;10.52;68.78;97459.95;223323;183;138951;-73
2023/03/27 09:04:26;;;;;;;7.30;5.90;;;;;;;10.49;68.79;97464.34;223438;184;135902;-73
2023/03/27 09:09:54;;;;;;;8.40;6.20;;;;;;;10.43;68.52;97467.27;222921;186;143271;-73
2023/03/27 09:15:03;;;;;;;8.40;5.10;;;;;;;10.37;68.34;97471.69;223397;184;139468;-73
2023/03/27 09:20:19;;;;;;;5.30;4.00;;;;;;;10.36;68.07;97470.00;223665;184;137092;-73
2023/03/27 09:25:33;;;;;;;7.10;4.20;;;;;;;10.36;67.71;97474.92;223507;184;144097;-73
2023/03/27 09:31:24;;;;;;;4.70;4.10;;;;;;;10.35;67.46;97474.50;223411;185;139736;-73
2023/03/27 09:36:28;;;;;;;4.20;2.80;;;;;;;10.30;67.27;97478.98;223572;183;136212;-73
2023/03/27 09:41:41;;;;;;;2.40;1.70;;;;;;;10.17;66.24;97485.63;223657;182;145067;-74
2023/03/27 09:46:51;;;;;;;2.10;1.90;;;;;;;10.05;65.74;97495.10;223631;183;139046;-73
2023/03/27 09:51:58;;;;;;;3.40;2.20;;;;;;;9.90;66.00;97505.27;223759;183;137038;-74
2023/03/27 09:57:15;;;;;;;4.20;2.40;;;;;;;9.76;65.64;97510.52;223838;183;147147;-73
2023/03/27 10:02:25;;;;;;;2.90;1.80;;;;;;;9.63;65.41;97515.61;223670;182;140211;-73
2023/03/27 10:07:29;;;;;;;3.60;2.40;;;;;;;9.52;65.26;97518.89;223356;182;136378;-74
2023/03/27 10:12:54;;;;;;;7.30;3.00;;;;;;;9.41;65.56;97523.83;223767;183;145753;-74
2023/03/27 10:18:21;;;;;;;5.30;2.40;;;;;;;9.37;65.75;97531.24;223624;183;138809;-74
2023/03/27 10:23:27;;;;;;;3.80;3.00;;;;;;;9.36;66.12;97539.52;223709;182;137529;-74
2023/03/27 10:28:35;;;;;;;7.40;3.70;;;;;;;9.35;66.30;97548.92;223767;182;145780;-76
2023/03/27 10:33:55;;;;;;;6.60;4.80;;;;;;;9.34;66.04;97551.84;223644;183;139230;-76
2023/03/27 10:39:31;;;;;;;9.80;6.80;;;;;;;9.24;65.47;97557.80;223807;182;136310;-74
2023/03/27 10:44:53;;;;;;;9.80;6.90;;;;;;;9.22;65.96;97560.88;223491;183;145139;-76
2023/03/27 10:49:57;;;;;;;9.90;6.50;;;;;;;9.18;65.84;97564.66;223661;183;138728;-76
2023/03/27 10:55:29;;;;;;;9.20;6.00;;;;;;;9.07;65.15;97565.54;223643;182;139932;-75
2023/03/27 11:00:49;;;;;;;9.40;6.00;;;;;;;8.97;65.33;97585.06;223722;183;145861;-76
2023/03/27 11:05:54;;;;;;;9.50;6.30;;;;;;;8.87;65.46;97589.73;223661;182;138605;-73
2023/03/27 11:11:31;;;;;;;10.70;8.60;;;;;;;8.72;65.41;97598.48;223760;182;135990;-73
2023/03/27 11:16:43;;;;;;;93.90;64.70;;;;;;;8.64;65.24;97601.98;223581;182;145648;-76
2023/03/27 11:21:57;;;;;;;14.40;8.60;;;;;;;8.49;64.96;97607.89;223579;182;138529;-77
2023/03/27 11:27:04;;;;;;;10.10;7.70;;;;;;;8.35;65.04;97634.42;223564;183;248022;-75
2023/03/27 11:32:28;;;;;;;12.10;8.60;;;;;;;8.33;64.88;97650.80;223584;179;145755;-74
2023/03/27 11:37:42;;;;;;;11.90;9.20;;;;;;;8.31;64.05;97668.80;223642;183;139384;-76
2023/03/27 11:42:47;;;;;;;13.90;9.00;;;;;;;8.17;63.63;97680.92;223614;183;136734;-77
2023/03/27 11:48:31;;;;;;;11.70;8.80;;;;;;;8.10;63.87;97691.91;223595;182;146261;-76
2023/03/27 11:54:05;;;;;;;13.70;8.60;;;;;;;8.01;63.69;97711.81;223534;182;138879;-76
2023/03/27 12:00:01;;;;;;;13.10;7.90;;;;;;;7.84;63.25;97720.25;223675;182;137241;-77
2023/03/27 12:05:32;;;;;;;11.20;6.60;;;;;;;7.64;62.74;97730.19;223646;182;145062;-76
2023/03/27 12:10:45;;;;;;;9.50;5.80;;;;;;;7.44;61.90;97740.41;223661;182;138844;-77
2023/03/27 12:16:16;;;;;;;5.90;4.60;;;;;;;7.20;61.91;97772.56;223523;182;135827;-77
2023/03/27 12:21:43;;;;;;;6.70;4.30;;;;;;;7.12;62.28;97793.95;223799;182;145460;-77
2023/03/27 12:27:27;;;;;;;6.20;4.40;;;;;;;6.87;62.15;97812.22;223319;183;138792;-77
2023/03/27 12:32:58;;;;;;;7.80;3.60;;;;;;;6.78;61.76;97822.67;223745;182;139318;-75
2023/03/27 12:38:22;;;;;;;5.90;3.40;;;;;;;6.58;61.43;97839.34;223681;182;145494;-75
2023/03/27 12:43:50;;;;;;;6.20;3.60;;;;;;;6.43;61.77;97862.47;223649;183;138278;-75
2023/03/27 12:49:04;;;;;;;7.10;3.00;;;;;;;6.29;62.24;97872.41;223749;182;136544;-74
2023/03/27 12:54:23;;;;;;;5.30;2.90;;;;;;;6.26;61.64;97887.38;223801;182;147361;-76
2023/03/27 12:59:30;;;;;;;6.30;2.60;;;;;;;6.30;61.42;97900.48;223641;178;138350;-76
2023/03/27 13:05:14;;;;;;;4.60;2.50;;;;;;;6.25;59.96;97915.12;223690;182;136672;-74
2023/03/27 13:10:56;;;;;;;4.40;2.60;;;;;;;6.11;59.92;97940.98;223652;183;145226;-75
2023/03/27 13:16:19;;;;;;;4.10;2.20;;;;;;;6.14;58.98;97953.96;223700;182;138523;-75
2023/03/27 13:21:39;;;;;;;4.40;2.10;;;;;;;6.04;58.29;97966.40;223677;183;138778;-75
2023/03/27 13:27:08;;;;;;;3.30;2.10;;;;;;;6.04;57.64;97971.48;223649;183;145683;-76
2023/03/27 13:32:36;;;;;;;7.60;2.30;;;;;;;6.05;57.50;97979.88;223708;182;138414;-76
2023/03/27 13:38:02;;;;;;;5.90;2.40;;;;;;;6.12;57.24;97989.85;223727;183;136335;-76
2023/03/27 13:43:24;;;;;;;5.00;2.50;;;;;;;6.16;57.08;98009.89;223623;183;145724;-75
2023/03/27 13:48:49;;;;;;;6.00;2.50;;;;;;;6.15;56.37;98022.74;223681;183;138537;-76
2023/03/27 13:54:30;;;;;;;4.30;2.50;;;;;;;6.15;56.75;98031.58;223715;182;136224;-74
2023/03/27 13:59:33;;;;;;;4.90;2.60;;;;;;;6.08;55.97;98045.04;223699;183;145530;-75
2023/03/27 14:04:49;;;;;;;13.30;6.80;;;;;;;6.09;58.73;98050.58;223293;182;264629;-76
2023/03/27 14:10:16;;;;;;;5.90;2.60;;;;;;;6.41;56.61;98065.38;223684;183;138244;-76
2023/03/27 14:22:41;;;;;;;5.00;2.60;;;;;;;6.36;54.70;98081.75;223537;182;140036;-74
2023/03/27 14:27:53;;;;;;;7.20;2.90;;;;;;;6.21;54.07;98086.52;223577;182;136533;-74
2023/03/27 14:33:08;;;;;;;4.80;2.60;;;;;;;6.21;54.19;98105.05;223297;179;145460;-75
2023/03/27 14:38:27;;;;;;;3.10;2.40;;;;;;;6.18;53.78;98123.01;223641;182;138825;-74
2023/03/27 14:43:32;;;;;;;4.00;2.30;;;;;;;6.06;53.44;98129.65;223704;182;135952;-75
2023/03/27 14:48:41;;;;;;;6.70;2.40;;;;;;;6.06;52.97;98138.11;223669;183;146124;-74
2023/03/27 14:53:49;;;;;;;3.70;2.50;;;;;;;5.96;52.25;98144.71;223600;182;138294;-75
2023/03/27 14:59:00;;;;;;;5.50;2.20;;;;;;;5.94;52.18;98157.84;223721;182;136463;-75
2023/03/27 15:04:14;;;;;;;3.60;2.40;;;;;;;5.84;51.78;98176.52;223673;182;145765;-75
2023/03/27 15:09:22;;;;;;;4.40;2.70;;;;;;;5.77;52.07;98187.98;223638;182;138078;-75
2023/03/27 15:15:05;;;;;;;4.20;2.40;;;;;;;5.77;51.62;98200.13;223312;182;135846;-74
2023/03/27 15:20:13;;;;;;;3.90;2.20;;;;;;;5.87;50.28;98207.49;223663;182;145627;-75
2023/03/27 15:25:27;;;;;;;3.50;2.40;;;;;;;5.99;50.36;98221.48;223653;182;138934;-75
2023/03/27 15:30:31;;;;;;;6.30;3.20;;;;;;;5.94;49.76;98235.48;223765;181;136445;-75
2023/03/27 15:35:37;;;;;;;3.40;2.10;;;;;;;5.83;49.18;98242.91;223750;181;146043;-75
2023/03/27 15:40:45;;;;;;;4.20;2.60;;;;;;;5.71;48.79;98247.96;223573;181;138801;-75
2023/03/27 15:46:00;;;;;;;3.80;2.40;;;;;;;5.67;49.48;98251.70;223636;182;137476;-75
2023/03/27 15:51:06;;;;;;;4.60;2.70;;;;;;;5.78;49.22;98255.51;223764;182;146409;-74
2023/03/27 15:56:12;;;;;;;4.80;2.60;;;;;;;5.72;48.10;98264.81;223718;182;141006;-75
2023/03/27 16:01:25;;;;;;;7.90;2.40;;;;;;;5.70;48.25;98276.71;223721;182;136721;-75
2023/03/27 16:06:33;;;;;;;6.80;2.90;;;;;;;5.74;47.98;98275.42;223789;183;144926;-76
2023/03/27 16:11:47;;;;;;;8.00;3.80;;;;;;;5.79;48.38;98285.40;223704;182;138625;-77
2023/03/27 16:17:14;;;;;;;6.60;2.70;;;;;;;5.79;47.49;98293.98;223815;182;136078;-76
2023/03/27 16:22:31;;;;;;;3.90;2.50;;;;;;;5.81;47.16;98301.96;223744;181;145923;-77
2023/03/27 16:27:53;;;;;;;4.80;2.20;;;;;;;5.76;47.13;98308.41;223712;183;138428;-78
2023/03/27 16:33:00;;;;;;;31.70;20.00;;;;;;;5.72;46.64;98315.70;223725;182;137474;-76
2023/03/27 16:38:04;;;;;;;4.30;2.70;;;;;;;5.69;46.20;98326.58;223679;182;145230;-76
2023/03/27 16:43:08;;;;;;;5.40;2.70;;;;;;;5.58;46.56;98338.58;223721;182;138953;-74
2023/03/27 16:48:12;;;;;;;5.00;2.90;;;;;;;5.65;47.02;98349.85;223720;182;136931;-74
2023/03/27 16:53:15;;;;;;;6.80;3.50;;;;;;;5.66;47.18;98349.63;223615;182;146768;-73
2023/03/27 16:58:19;;;;;;;4.90;2.80;;;;;;;5.75;46.83;98359.86;223707;182;139936;-73
2023/03/27 17:03:23;;;;;;;6.20;3.10;;;;;;;5.85;46.30;98370.95;223543;183;135937;-74
2023/03/27 17:08:29;;;;;;;5.10;2.70;;;;;;;5.75;46.30;98384.14;223491;182;145412;-73
2023/03/27 17:13:33;;;;;;;9.40;2.90;;;;;;;5.79;46.45;98387.84;223567;182;138189;-74
2023/03/27 17:18:36;;;;;;;262.80;178.70;;;;;;;5.80;46.98;98394.48;223758;182;136499;-75
2023/03/27 17:23:42;;;;;;;6.10;3.80;;;;;;;5.80;46.30;98398.81;223659;181;145097;-76
2023/03/27 17:28:47;;;;;;;6.50;3.20;;;;;;;5.78;46.48;98416.19;223637;182;138760;-75
2023/03/27 17:33:51;;;;;;;7.70;3.80;;;;;;;5.74;46.19;98424.34;223415;182;137096;-74
2023/03/27 17:45:18;;;;;;;6.10;3.10;;;;;;;5.77;45.58;98438.63;223664;181;144644;-75
2023/03/27 17:50:22;;;;;;;4.80;2.90;;;;;;;5.76;45.47;98443.78;223675;182;136774;-77
2023/03/27 17:55:25;;;;;;;5.50;2.90;;;;;;;5.71;45.10;98446.86;223678;182;147192;-76
2023/03/27 18:00:30;;;;;;;6.90;3.00;;;;;;;5.63;43.89;98454.84;223689;179;138513;-74
2023/03/27 18:05:38;;;;;;;4.50;2.70;;;;;;;5.62;44.04;98461.19;223633;182;136758;-74
2023/03/27 18:10:47;;;;;;;7.00;2.50;;;;;;;5.65;43.61;98468.07;223716;182;148506;-75
2023/03/27 18:15:55;;;;;;;5.30;2.70;;;;;;;5.62;43.34;98469.51;223677;182;138366;-74
2023/03/27 18:21:00;;;;;;;105.70;71.60;;;;;;;5.58;44.67;98478.66;223689;182;136649;-74
2023/03/27 18:26:05;;;;;;;6.50;3.60;;;;;;;5.56;42.59;98474.89;223754;182;146870;-73
2023/03/27 18:31:10;;;;;;;4.70;2.20;;;;;;;5.51;41.54;98486.06;223616;183;138476;-73
2023/03/27 18:36:14;;;;;;;4.50;2.20;;;;;;;5.46;41.81;98501.10;223703;182;138347;-74
2023/03/27 18:41:18;;;;;;;5.20;2.00;;;;;;;5.35;41.15;98508.64;223689;182;148139;-73
2023/03/27 18:46:21;;;;;;;6.00;3.20;;;;;;;5.19;41.76;98512.98;223646;182;138785;-72
2023/03/27 18:51:25;;;;;;;5.00;2.20;;;;;;;5.22;42.14;98523.90;223656;182;136992;-72
2023/03/27 18:56:28;;;;;;;6.20;2.30;;;;;;;5.23;41.79;98523.84;223676;182;147877;-72
2023/03/27 19:01:33;;;;;;;7.40;2.80;;;;;;;5.24;41.66;98533.84;223640;182;138391;-72
2023/03/27 19:06:37;;;;;;;5.50;2.40;;;;;;;5.22;41.49;98544.82;223656;182;139908;-73
2023/03/27 19:11:42;;;;;;;5.20;2.60;;;;;;;5.10;41.70;98551.21;223615;182;147008;-73
2023/03/27 19:17:04;;;;;;;4.50;2.40;;;;;;;5.04;41.84;98552.02;223675;182;140888;-72
2023/03/27 19:22:13;;;;;;;4.70;2.60;;;;;;;4.96;42.05;98557.85;223742;183;138044;-72
2023/03/27 19:27:21;;;;;;;4.70;2.60;;;;;;;4.98;42.07;98562.30;223671;182;147361;-72
2023/03/27 19:32:27;;;;;;;7.30;3.00;;;;;;;4.96;42.40;98568.56;223625;182;138088;-72
2023/03/27 19:37:31;;;;;;;7.50;3.50;;;;;;;4.99;42.86;98569.66;223706;182;136970;-72
2023/03/27 19:42:35;;;;;;;11.60;4.10;;;;;;;4.95;43.19;98567.00;223691;182;148651;-72
2023/03/27 19:47:38;;;;;;;9.00;4.40;;;;;;;4.87;43.55;98575.67;223639;181;139040;-72
2023/03/27 19:52:43;;;;;;;9.00;4.00;;;;;;;4.84;43.77;98571.93;223553;182;136656;-72
2023/03/27 19:57:56;;;;;;;8.90;4.20;;;;;;;4.85;44.25;98576.06;223726;182;147023;-72
2023/03/27 20:03:00;;;;;;;9.20;4.80;;;;;;;4.88;44.50;98578.06;223743;182;138859;-72
2023/03/27 20:08:05;;;;;;;9.90;4.90;;;;;;;4.89;44.50;98585.56;223722;182;136859;-72
2023/03/27 20:13:09;;;;;;;9.60;4.40;;;;;;;4.88;44.78;98585.97;223657;182;147493;-71
2023/03/27 20:18:12;;;;;;;28.30;15.60;;;;;;;4.81;44.92;98590.16;223633;182;140801;-72
2023/03/27 20:23:16;;;;;;;10.30;4.80;;;;;;;4.73;45.37;98590.02;223663;182;137188;-71
2023/03/27 20:28:19;;;;;;;10.80;5.00;;;;;;;4.69;45.48;98591.58;223764;182;147262;-71
2023/03/27 20:33:23;;;;;;;8.40;4.90;;;;;;;4.63;45.79;98595.57;223607;181;138374;-71
2023/03/27 20:38:30;;;;;;;11.20;4.90;;;;;;;4.64;45.94;98594.46;223770;182;137065;-73
2023/03/27 20:43:34;;;;;;;8.20;4.70;;;;;;;4.63;45.77;98599.10;223713;182;147695;-72
2023/03/27 20:48:43;;;;;;;12.30;5.50;;;;;;;4.61;45.93;98601.46;223733;182;139011;-72
2023/03/27 20:53:57;;;;;;;12.70;5.70;;;;;;;4.62;45.86;98603.70;223795;182;137532;-73
2023/03/27 20:59:00;;;;;;;12.00;5.20;;;;;;;4.58;45.96;98603.36;223617;182;147187;-72
2023/03/27 21:04:05;;;;;;;8.80;5.10;;;;;;;4.64;46.12;98607.10;222867;182;138322;-74
2023/03/27 21:09:12;;;;;;;9.80;5.40;;;;;;;4.68;45.95;98614.50;223708;182;137230;-73
2023/03/27 21:14:16;;;;;;;10.50;5.30;;;;;;;4.68;46.04;98617.84;223512;183;147044;-73
2023/03/27 21:19:20;;;;;;;8.50;5.00;;;;;;;4.65;46.10;98623.04;223695;182;138303;-73
2023/03/27 21:24:23;;;;;;;10.70;5.40;;;;;;;4.67;46.06;98620.52;223708;182;138485;-73
2023/03/27 21:29:26;;;;;;;10.00;5.20;;;;;;;4.64;46.12;98618.52;223633;183;147611;-73
2023/03/27 21:34:30;;;;;;;12.30;6.00;;;;;;;4.58;46.21;98624.27;223788;182;139730;-73
2023/03/27 21:39:33;;;;;;;13.00;6.00;;;;;;;4.53;46.51;98629.55;223780;182;136348;-73
2023/03/27 21:44:37;;;;;;;11.00;5.50;;;;;;;4.49;46.49;98632.52;223598;183;147716;-71
2023/03/27 21:56:01;;;;;;;12.20;5.90;;;;;;;4.44;46.72;98639.64;223842;182;136962;-71
2023/03/27 22:01:05;;;;;;;9.90;5.60;;;;;;;4.47;46.64;98640.38;223753;182;147331;-71
2023/03/27 22:06:09;;;;;;;10.50;5.50;;;;;;;4.46;46.74;98644.25;223684;182;138835;-72
2023/03/27 22:11:15;;;;;;;12.40;5.90;;;;;;;4.38;46.73;98646.36;223617;181;136695;-71
2023/03/27 22:16:19;;;;;;;10.40;5.60;;;;;;;4.31;46.92;98648.45;223711;182;148120;-71
2023/03/27 22:21:26;;;;;;;10.80;5.70;;;;;;;4.21;46.96;98649.58;223590;182;138419;-72
2023/03/27 22:26:36;;;;;;;14.70;6.20;;;;;;;4.17;47.13;98654.50;223509;182;136743;-71
2023/03/27 22:31:39;;;;;;;11.90;5.50;;;;;;;4.19;47.08;98653.67;223620;182;148220;-70
2023/03/27 22:36:43;;;;;;;10.50;5.40;;;;;;;4.16;47.01;98659.98;223190;182;138982;-72
2023/03/27 22:41:46;;;;;;;12.40;5.40;;;;;;;4.12;47.04;98660.84;223669;182;136760;-71
2023/03/27 22:46:51;;;;;;;10.40;5.60;;;;;;;4.01;47.10;98670.58;223621;181;147035;-72
2023/03/27 22:51:55;;;;;;;12.20;5.50;;;;;;;3.93;47.26;98668.64;223667;182;140042;-72
2023/03/27 22:56:58;;;;;;;13.60;5.80;;;;;;;3.90;47.48;98670.16;223646;181;136438;-72
2023/03/27 23:02:01;;;;;;;13.20;6.00;;;;;;;3.85;47.46;98679.16;223629;181;147684;-72
2023/03/27 23:07:05;;;;;;;12.70;6.30;;;;;;;3.85;47.66;98684.42;223661;182;138496;-72
2023/03/27 23:12:09;;;;;;;16.30;7.10;;;;;;;3.86;47.50;98682.97;223673;182;137384;-72
2023/03/27 23:17:12;;;;;;;13.80;6.40;;;;;;;3.81;47.45;98677.02;223613;182;147030;-73
2023/03/27 23:22:16;;;;;;;15.00;6.40;;;;;;;3.83;47.51;98684.14;223428;182;138193;-73
2023/03/27 23:27:19;;;;;;;15.10;6.60;;;;;;;3.77;47.56;98690.85;222840;182;137190;-73
2023/03/27 23:32:22;;;;;;;11.80;6.10;;;;;;;3.75;47.68;98695.17;223691;182;147385;-73
2023/03/27 23:37:27;;;;;;;11.90;6.10;;;;;;;3.67;47.70;98700.74;223610;182;138836;-73
2023/03/27 23:42:30;;;;;;;12.80;6.50;;;;;;;3.62;47.88;98703.75;223602;181;137764;-73
2023/03/27 23:47:34;;;;;;;12.70;6.50;;;;;;;3.54;48.04;98694.77;223775;182;149020;-72
2023/03/27 23:52:37;;;;;;;14.90;6.70;;;;;;;3.45;48.15;98696.85;223656;182;138922;-72
2023/03/27 23:57:41;;;;;;;16.20;6.70;;;;;;;3.37;48.35;98695.77;223704;181;136808;-72
